Time;durP1;ratioP1;P1;durP2;ratioP2;P2;SDS_P1;SDS_P2;PMS_P1;PMS_P2;Temp;Humidity;BMP_temperature;BMP_pressure;BME280_temperature;BME280_humidity;BME280_pressure;Samples;Min_cycle;Max_cycle;Signal;HPM_P1;HPM_P2
2023/07/15 00:01:18;;;;;;;11.40;5.13;;;19.00;99.90;;;;;;5113773;28;20120;-71
2023/07/15 00:03:44;;;;;;;7.40;4.40;;;19.00;99.90;;;;;;5113883;28;20035;-71
2023/07/15 00:06:10;;;;;;;8.45;4.32;;;19.00;99.90;;;;;;5112637;28;20062;-70
2023/07/15 00:08:36;;;;;;;6.45;4.20;;;19.00;99.90;;;;;;5114714;28;20039;-71
2023/07/15 00:11:02;;;;;;;10.05;4.53;;;19.00;99.90;;;;;;5113226;28;20552;-71
2023/07/15 00:13:30;;;;;;;7.07;4.43;;;19.00;99.90;;;;;;5113359;28;20088;-70
2023/07/15 00:15:57;;;;;;;9.40;4.57;;;19.00;99.90;;;;;;5113572;28;20044;-71
2023/07/15 00:18:26;;;;;;;7.10;4.28;;;19.10;99.90;;;;;;5115483;28;20089;-71
2023/07/15 00:20:52;;;;;;;7.95;4.28;;;19.20;99.90;;;;;;5113867;28;20058;-72
2023/07/15 00:23:21;;;;;;;6.45;4.25;;;19.10;99.90;;;;;;5115080;28;20047;-72
2023/07/15 00:25:48;;;;;;;6.53;4.10;;;19.20;99.90;;;;;;5114332;28;20068;-72
2023/07/15 00:28:14;;;;;;;7.70;4.35;;;19.30;99.90;;;;;;5113526;28;20043;-72
2023/07/15 00:30:40;;;;;;;6.55;3.90;;;19.30;99.90;;;;;;5114313;28;20173;-72
2023/07/15 00:33:14;;;;;;;8.95;4.68;;;19.30;99.90;;;;;;5114551;28;20138;-72
2023/07/15 00:35:41;;;;;;;6.47;4.28;;;19.30;99.90;;;;;;5113115;28;20071;-72
2023/07/15 00:38:06;;;;;;;6.50;3.95;;;19.30;99.90;;;;;;5115306;28;20114;-71
2023/07/15 00:40:39;;;;;;;8.73;4.05;;;19.30;99.90;;;;;;5114818;28;20550;-72
2023/07/15 00:43:42;;;;;;;6.32;3.97;;;19.30;99.90;;;;;;5115407;28;20062;-71
2023/07/15 00:46:26;;;;;;;7.50;4.35;;;19.30;99.90;;;;;;5116877;28;20051;-71
2023/07/15 00:49:06;;;;;;;6.97;4.22;;;19.30;99.90;;;;;;5115621;28;20387;-72
2023/07/15 00:51:47;;;;;;;5.50;3.72;;;19.30;99.90;;;;;;5114760;28;20470;-71
2023/07/15 00:54:14;;;;;;;6.38;3.65;;;19.30;99.90;;;;;;5114978;28;20085;-72
2023/07/15 00:56:44;;;;;;;5.90;3.50;;;19.30;99.90;;;;;;5115181;28;20039;-72
2023/07/15 00:59:12;;;;;;;9.75;3.90;;;19.40;99.90;;;;;;5115298;28;20058;-71
2023/07/15 01:01:38;;;;;;;6.53;3.80;;;19.40;99.90;;;;;;5115647;28;20063;-71
2023/07/15 01:04:05;;;;;;;7.32;4.00;;;19.50;99.90;;;;;;5115333;28;20043;-71
2023/07/15 01:06:35;;;;;;;6.40;3.50;;;19.50;99.90;;;;;;5115246;28;20520;-72
2023/07/15 01:09:07;;;;;;;5.85;3.60;;;19.60;99.90;;;;;;5114793;28;20080;-72
2023/07/15 01:11:34;;;;;;;6.25;3.63;;;19.60;99.90;;;;;;5115987;28;20043;-71
2023/07/15 01:13:59;;;;;;;6.22;3.70;;;19.60;99.90;;;;;;5116455;28;20040;-71
2023/07/15 01:16:28;;;;;;;7.20;3.50;;;19.70;99.90;;;;;;5115056;28;20494;-71
2023/07/15 01:18:54;;;;;;;6.15;3.75;;;19.60;99.90;;;;;;5116169;28;20044;-72
2023/07/15 01:21:20;;;;;;;5.57;3.70;;;19.60;99.90;;;;;;5115219;28;20047;-71
2023/07/15 01:23:46;;;;;;;5.32;3.80;;;19.60;99.90;;;;;;5113886;28;20054;-71
2023/07/15 01:26:12;;;;;;;6.35;3.67;;;19.70;99.90;;;;;;5116374;28;20039;-71
2023/07/15 01:28:37;;;;;;;6.05;3.40;;;19.70;99.90;;;;;;5115862;28;20040;-71
2023/07/15 01:31:04;;;;;;;7.13;3.55;;;19.70;99.90;;;;;;5115432;28;20039;-71
2023/07/15 01:33:31;;;;;;;5.55;3.30;;;19.70;99.90;;;;;;5114714;28;20562;-72
2023/07/15 01:35:57;;;;;;;5.60;3.60;;;19.90;99.90;;;;;;5114785;28;20418;-71
2023/07/15 01:38:22;;;;;;;8.18;3.40;;;20.00;99.90;;;;;;5112842;28;20040;-71
2023/07/15 01:40:48;;;;;;;6.63;3.50;;;20.00;99.90;;;;;;5113438;28;20443;-71
2023/07/15 01:43:14;;;;;;;6.45;3.50;;;20.00;99.90;;;;;;5115658;28;20498;-71
2023/07/15 01:45:40;;;;;;;7.97;3.65;;;20.00;99.90;;;;;;5112591;28;20088;-71
2023/07/15 01:48:09;;;;;;;7.60;3.63;;;20.00;99.90;;;;;;5115099;28;20032;-71
2023/07/15 01:50:36;;;;;;;8.20;3.60;;;19.90;99.90;;;;;;5113210;28;20052;-72
2023/07/15 01:53:02;;;;;;;6.50;3.28;;;19.80;99.90;;;;;;5114878;28;20543;-71
2023/07/15 01:55:28;;;;;;;5.15;3.10;;;19.90;99.90;;;;;;5114726;28;20126;-71
2023/07/15 01:57:53;;;;;;;4.80;3.10;;;20.00;99.90;;;;;;5112836;28;20044;-71
2023/07/15 02:00:20;;;;;;;6.30;3.30;;;20.10;99.90;;;;;;5147222;27;20043;-71
2023/07/15 02:02:46;;;;;;;8.50;3.65;;;20.10;99.90;;;;;;5114315;28;20071;-71
2023/07/15 02:05:12;;;;;;;7.60;3.85;;;20.20;99.90;;;;;;5112540;28;20044;-71
2023/07/15 02:07:38;;;;;;;6.30;3.67;;;20.10;99.90;;;;;;5112977;28;20046;-71
2023/07/15 02:10:04;;;;;;;5.28;3.67;;;20.10;99.90;;;;;;5112912;28;20047;-70
2023/07/15 02:12:30;;;;;;;6.50;3.00;;;20.10;99.90;;;;;;5113684;28;20043;-71
2023/07/15 02:14:55;;;;;;;5.22;3.17;;;20.10;99.90;;;;;;5112751;28;20047;-71
2023/07/15 02:17:22;;;;;;;5.68;3.13;;;20.10;99.90;;;;;;5147404;27;20040;-70
2023/07/15 02:19:51;;;;;;;5.38;3.40;;;20.10;99.90;;;;;;5113361;28;20075;-70
2023/07/15 02:22:18;;;;;;;5.18;3.20;;;20.10;99.90;;;;;;5114576;28;20051;-70
2023/07/15 02:24:43;;;;;;;5.45;3.38;;;20.20;99.90;;;;;;5112823;28;20126;-70
2023/07/15 02:27:09;;;;;;;9.10;3.33;;;20.10;99.90;;;;;;5113119;28;20142;-70
2023/07/15 02:29:37;;;;;;;5.78;3.50;;;20.10;99.90;;;;;;5112524;28;20051;-70
2023/07/15 02:32:05;;;;;;;5.78;3.30;;;20.10;99.90;;;;;;5113431;28;20533;-70
2023/07/15 02:34:31;;;;;;;6.18;3.67;;;20.10;99.90;;;;;;5114440;28;20048;-70
2023/07/15 02:36:57;;;;;;;5.65;3.15;;;20.20;99.90;;;;;;5113785;28;20082;-70
2023/07/15 02:39:23;;;;;;;6.90;3.50;;;20.10;99.90;;;;;;5114227;27;20040;-70
2023/07/15 02:41:50;;;;;;;5.72;3.47;;;20.10;99.90;;;;;;5113055;28;20403;-70
2023/07/15 02:44:16;;;;;;;8.00;3.47;;;20.00;99.90;;;;;;5115405;28;20063;-70
2023/07/15 02:46:41;;;;;;;5.28;3.40;;;20.10;99.90;;;;;;5114636;28;20067;-70
2023/07/15 02:49:07;;;;;;;8.32;3.58;;;20.10;99.90;;;;;;5113596;28;20043;-70
2023/07/15 02:51:33;;;;;;;7.25;3.60;;;20.20;99.90;;;;;;5113795;28;20043;-71
2023/07/15 02:54:01;;;;;;;6.53;3.95;;;20.10;99.90;;;;;;5113926;28;20073;-70
2023/07/15 02:56:27;;;;;;;6.40;3.80;;;20.10;99.90;;;;;;5114622;28;20078;-70
2023/07/15 02:58:54;;;;;;;6.38;3.70;;;20.20;99.90;;;;;;5113641;28;20086;-71
2023/07/15 03:01:21;;;;;;;7.20;3.47;;;20.30;99.90;;;;;;5113672;28;20042;-71
2023/07/15 03:03:47;;;;;;;5.40;3.35;;;20.20;99.90;;;;;;5113166;28;20422;-71
2023/07/15 03:06:12;;;;;;;6.95;3.38;;;20.00;99.90;;;;;;5113148;28;20127;-71
2023/07/15 03:08:38;;;;;;;8.82;3.72;;;20.00;99.90;;;;;;5113112;28;20140;-71
2023/07/15 03:11:08;;;;;;;6.85;3.78;;;20.00;99.90;;;;;;5112612;28;20043;-71
2023/07/15 03:13:35;;;;;;;6.07;4.18;;;19.90;99.90;;;;;;5113171;28;20055;-70
2023/07/15 03:16:00;;;;;;;7.03;3.80;;;19.90;99.90;;;;;;5112777;28;20127;-70
2023/07/15 03:18:29;;;;;;;8.20;3.70;;;19.80;99.90;;;;;;5113494;28;20120;-70
2023/07/15 03:20:56;;;;;;;6.07;3.83;;;19.70;99.90;;;;;;5112899;28;20044;-70
2023/07/15 03:23:31;;;;;;;6.60;3.85;;;19.70;99.90;;;;;;5112962;28;20055;-70
2023/07/15 03:25:56;;;;;;;9.48;3.97;;;19.70;99.90;;;;;;5113346;28;20044;-70
2023/07/15 03:28:22;;;;;;;5.70;3.85;;;19.60;99.90;;;;;;5113328;28;20541;-70
2023/07/15 03:30:48;;;;;;;6.75;4.13;;;19.60;99.90;;;;;;5114180;28;20065;-71
2023/07/15 03:33:14;;;;;;;5.90;3.97;;;19.60;99.90;;;;;;5113846;28;20062;-70
2023/07/15 03:35:44;;;;;;;5.60;3.92;;;19.50;99.90;;;;;;5111950;28;20047;-70
2023/07/15 03:38:10;;;;;;;5.30;4.03;;;19.50;99.90;;;;;;5114761;28;20475;-71
2023/07/15 03:40:35;;;;;;;6.13;4.13;;;19.50;99.90;;;;;;5112841;28;20065;-70
2023/07/15 03:43:01;;;;;;;9.18;4.05;;;19.40;99.90;;;;;;5112282;28;20067;-70
2023/07/15 03:45:27;;;;;;;9.52;4.70;;;19.40;99.90;;;;;;5112635;28;20051;-70
2023/07/15 03:47:53;;;;;;;7.10;4.15;;;19.30;99.90;;;;;;5113666;28;20080;-70
2023/07/15 03:50:19;;;;;;;6.88;4.38;;;19.30;99.90;;;;;;5113465;28;20048;-70
2023/07/15 03:52:44;;;;;;;7.10;4.65;;;19.30;99.90;;;;;;5111482;28;20039;-71
2023/07/15 03:55:11;;;;;;;6.65;4.50;;;19.20;99.90;;;;;;5113281;28;20047;-71
2023/07/15 03:57:37;;;;;;;7.30;4.93;;;19.20;99.90;;;;;;5113279;28;20035;-71
2023/07/15 04:00:07;;;;;;;7.70;4.68;;;19.20;99.90;;;;;;5112660;28;20402;-71
2023/07/15 04:02:33;;;;;;;7.32;4.90;;;19.20;99.90;;;;;;5113256;28;20083;-71
2023/07/15 04:05:02;;;;;;;7.43;4.70;;;19.20;99.90;;;;;;5112065;28;20043;-71
2023/07/15 04:07:30;;;;;;;9.45;4.95;;;19.10;99.90;;;;;;5111576;28;20058;-71
2023/07/15 04:09:56;;;;;;;7.85;5.32;;;19.00;99.90;;;;;;5112121;28;20035;-71
2023/07/15 04:12:22;;;;;;;7.70;4.75;;;19.10;99.90;;;;;;5145568;27;20112;-71
2023/07/15 04:14:47;;;;;;;6.90;4.82;;;19.10;99.90;;;;;;5114492;28;20046;-71
2023/07/15 04:17:13;;;;;;;9.43;5.20;;;19.10;99.90;;;;;;5115949;28;20043;-71
2023/07/15 04:19:39;;;;;;;6.93;4.60;;;19.10;99.90;;;;;;5116015;28;20044;-71
2023/07/15 04:22:05;;;;;;;7.38;4.82;;;19.10;99.90;;;;;;5116728;28;20047;-72
2023/07/15 04:24:30;;;;;;;8.57;4.80;;;19.10;99.90;;;;;;5117158;28;20091;-71
2023/07/15 04:26:56;;;;;;;9.27;5.47;;;19.20;99.90;;;;;;5116224;28;20394;-72
2023/07/15 04:29:25;;;;;;;8.10;5.18;;;19.20;99.90;;;;;;5117808;28;20039;-71
2023/07/15 04:31:50;;;;;;;10.98;5.10;;;19.10;99.90;;;;;;5116357;28;20138;-71
2023/07/15 04:34:16;;;;;;;7.22;5.00;;;19.10;99.90;;;;;;5115360;28;20127;-71
2023/07/15 04:36:42;;;;;;;9.57;5.40;;;19.20;99.90;;;;;;5116670;28;20036;-72
2023/07/15 04:39:08;;;;;;;10.02;5.20;;;19.20;99.90;;;;;;5116280;28;20054;-71
2023/07/15 04:41:33;;;;;;;8.10;5.30;;;19.20;99.90;;;;;;5115587;28;20105;-72
2023/07/15 04:43:59;;;;;;;8.07;4.90;;;19.20;99.90;;;;;;5117173;28;20035;-71
2023/07/15 04:46:25;;;;;;;7.63;4.93;;;19.20;99.90;;;;;;5116142;28;20052;-71
2023/07/15 04:48:51;;;;;;;7.45;5.15;;;19.30;99.90;;;;;;5114906;28;20051;-71
2023/07/15 04:51:16;;;;;;;9.15;5.43;;;19.40;99.90;;;;;;5116949;28;20113;-71
2023/07/15 04:53:43;;;;;;;10.93;5.45;;;19.30;99.90;;;;;;5149254;27;20380;-71
2023/07/15 04:56:09;;;;;;;8.40;4.80;;;19.30;99.90;;;;;;5117392;28;20036;-71
2023/07/15 04:58:36;;;;;;;8.52;4.47;;;19.40;99.90;;;;;;5116487;28;20092;-71
2023/07/15 05:01:02;;;;;;;7.35;4.45;;;19.60;99.90;;;;;;5116349;28;20040;-71
2023/07/15 05:03:27;;;;;;;6.68;4.15;;;19.60;99.90;;;;;;5115890;28;20127;-72
2023/07/15 05:05:53;;;;;;;5.78;3.67;;;19.70;99.90;;;;;;5149787;27;20542;-71
2023/07/15 05:08:22;;;;;;;7.35;3.88;;;19.90;99.90;;;;;;5115807;28;20386;-71
2023/07/15 05:11:00;;;;;;;6.47;4.00;;;19.90;99.90;;;;;;5114689;28;20112;-72
2023/07/15 05:13:26;;;;;;;7.15;4.30;;;20.10;99.90;;;;;;5115081;28;20039;-71
2023/07/15 05:15:52;;;;;;;6.20;4.07;;;20.10;99.90;;;;;;5115071;28;20411;-72
2023/07/15 05:18:20;;;;;;;6.93;3.83;;;20.10;99.90;;;;;;5115732;28;20474;-71
2023/07/15 05:20:46;;;;;;;6.72;3.65;;;20.30;99.90;;;;;;5116629;28;20040;-72
2023/07/15 05:23:14;;;;;;;8.15;3.58;;;20.40;99.90;;;;;;5116784;28;20115;-72
2023/07/15 05:25:40;;;;;;;8.63;3.80;;;20.40;99.90;;;;;;5116525;28;20503;-71
2023/07/15 05:28:05;;;;;;;9.68;3.97;;;20.50;99.90;;;;;;5114808;28;20120;-72
2023/07/15 05:30:34;;;;;;;5.30;3.95;;;20.60;99.90;;;;;;5115809;28;20099;-72
2023/07/15 05:33:03;;;;;;;6.55;4.20;;;20.80;99.90;;;;;;5116488;28;20054;-71
2023/07/15 05:35:32;;;;;;;6.30;3.88;;;20.80;99.90;;;;;;5115162;28;20047;-72
2023/07/15 05:37:57;;;;;;;5.57;3.50;;;20.90;99.90;;;;;;5114826;28;20047;-71
2023/07/15 05:40:23;;;;;;;7.75;4.22;;;21.00;99.90;;;;;;5139569;27;20044;-71
2023/07/15 05:42:51;;;;;;;8.95;4.32;;;20.90;99.90;;;;;;5093330;28;20052;-72
2023/07/15 05:45:17;;;;;;;6.47;4.40;;;20.90;99.90;;;;;;5128339;27;20125;-71
2023/07/15 05:47:46;;;;;;;5.45;4.07;;;20.90;99.90;;;;;;5128527;27;20472;-72
2023/07/15 05:50:11;;;;;;;5.07;3.53;;;21.00;99.90;;;;;;5103647;28;20044;-72
2023/07/15 05:52:37;;;;;;;5.53;2.95;;;21.00;99.90;;;;;;5115191;28;20452;-72
2023/07/15 05:55:04;;;;;;;5.38;3.00;;;21.20;99.90;;;;;;5116819;28;20047;-72
2023/07/15 05:57:30;;;;;;;5.45;3.38;;;21.20;99.90;;;;;;5113662;28;20119;-70
2023/07/15 05:59:58;;;;;;;6.38;3.42;;;21.30;99.90;;;;;;5115917;28;20140;-70
2023/07/15 06:02:25;;;;;;;5.28;3.28;;;21.40;99.90;;;;;;5114452;28;20047;-70
2023/07/15 06:04:51;;;;;;;5.55;2.97;;;21.40;99.90;;;;;;5112953;28;20047;-70
2023/07/15 06:07:16;;;;;;;7.72;3.35;;;21.50;99.90;;;;;;5115597;28;20418;-70
2023/07/15 06:09:42;;;;;;;6.63;3.42;;;21.50;99.90;;;;;;5114236;28;20043;-70
2023/07/15 06:12:11;;;;;;;5.25;3.60;;;21.40;99.90;;;;;;5114967;28;20051;-69
2023/07/15 06:14:40;;;;;;;7.07;3.42;;;21.40;99.90;;;;;;5113735;28;20047;-71
2023/07/15 06:17:05;;;;;;;4.53;3.13;;;21.50;99.90;;;;;;5114397;28;20046;-72
2023/07/15 06:19:31;;;;;;;8.85;3.40;;;21.50;99.90;;;;;;5113353;28;20051;-72
2023/07/15 06:21:56;;;;;;;4.50;3.42;;;21.60;99.90;;;;;;5108893;28;20082;-69
2023/07/15 06:24:22;;;;;;;5.65;3.38;;;21.70;99.90;;;;;;5113121;28;20451;-71
2023/07/15 06:26:48;;;;;;;4.20;2.70;;;21.70;99.90;;;;;;5111328;28;20036;-71
2023/07/15 06:29:14;;;;;;;4.47;2.85;;;21.80;99.90;;;;;;5112995;28;20132;-71
2023/07/15 06:31:39;;;;;;;4.53;2.60;;;22.00;99.90;;;;;;5112304;28;20048;-72
2023/07/15 06:34:05;;;;;;;5.57;2.33;;;22.10;99.90;;;;;;5113939;28;20127;-71
2023/07/15 06:36:31;;;;;;;5.78;2.70;;;22.20;99.90;;;;;;5112303;28;20069;-71
2023/07/15 06:39:00;;;;;;;4.68;2.40;;;22.30;99.90;;;;;;5112885;28;20072;-71
2023/07/15 06:41:25;;;;;;;4.32;2.30;;;22.30;99.90;;;;;;5114538;28;20043;-73
2023/07/15 06:43:51;;;;;;;5.90;2.70;;;22.30;99.90;;;;;;5112017;28;20412;-72
2023/07/15 06:46:17;;;;;;;3.97;2.45;;;22.20;99.90;;;;;;5111745;28;20040;-71
2023/07/15 06:48:44;;;;;;;4.35;2.42;;;22.10;99.90;;;;;;5113373;28;20170;-70
2023/07/15 06:51:14;;;;;;;4.10;2.70;;;22.20;99.90;;;;;;5092799;28;20048;-71
2023/07/15 06:53:41;;;;;;;3.78;2.30;;;22.20;99.90;;;;;;5091796;28;20052;-71
2023/07/15 06:56:06;;;;;;;7.05;2.88;;;22.10;99.90;;;;;;5113164;28;20399;-71
2023/07/15 06:58:32;;;;;;;4.68;2.30;;;22.20;99.90;;;;;;5113061;28;20050;-72
2023/07/15 07:01:00;;;;;;;4.03;2.22;;;22.20;99.90;;;;;;5112063;28;20522;-72
2023/07/15 07:03:28;;;;;;;6.68;2.13;;;22.30;99.90;;;;;;5112361;28;20498;-72
2023/07/15 07:05:54;;;;;;;3.30;1.88;;;22.30;99.90;;;;;;5111594;28;20035;-71
2023/07/15 07:08:26;;;;;;;7.47;2.47;;;22.30;99.90;;;;;;5110895;28;20506;-73
2023/07/15 07:10:52;;;;;;;7.45;2.40;;;22.40;99.90;;;;;;5112662;28;20042;-71
2023/07/15 07:13:20;;;;;;;4.63;1.80;;;22.40;99.90;;;;;;5113017;28;20039;-71
2023/07/15 07:15:47;;;;;;;5.70;2.03;;;22.50;99.90;;;;;;5110872;28;20110;-71
2023/07/15 07:18:13;;;;;;;7.30;1.83;;;22.50;99.90;;;;;;5111558;28;20043;-70
2023/07/15 07:20:39;;;;;;;3.80;1.60;;;22.40;99.90;;;;;;5112135;28;20092;-70
2023/07/15 07:23:08;;;;;;;3.03;1.45;;;22.30;99.90;;;;;;5111883;28;20043;-72
2023/07/15 07:25:34;;;;;;;6.35;1.85;;;22.20;99.90;;;;;;5113033;28;20039;-73
2023/07/15 07:28:03;;;;;;;3.15;1.30;;;22.30;99.90;;;;;;5112557;28;20040;-71
2023/07/15 07:30:29;;;;;;;3.80;1.50;;;22.40;99.90;;;;;;5111392;28;20078;-75
2023/07/15 07:32:55;;;;;;;2.85;1.00;;;22.50;99.90;;;;;;5113290;28;20094;-72
2023/07/15 07:35:21;;;;;;;2.22;1.10;;;23.30;99.90;;;;;;5111456;28;20039;-75
2023/07/15 07:37:47;;;;;;;5.68;1.30;;;22.50;99.90;;;;;;5112126;28;20043;-74
2023/07/15 07:40:13;;;;;;;5.70;1.50;;;22.50;99.90;;;;;;5111823;28;20486;-75
2023/07/15 07:42:39;;;;;;;5.72;1.60;;;22.40;99.90;;;;;;5111142;28;20040;-76
2023/07/15 07:45:15;;;;;;;5.25;1.50;;;22.40;99.90;;;;;;5113573;28;20042;-74
2023/07/15 07:47:41;;;;;;;4.90;1.40;;;22.40;99.90;;;;;;5112153;28;20051;-75
2023/07/15 07:50:07;;;;;;;5.40;1.58;;;22.30;99.90;;;;;;5115171;28;20042;-74
2023/07/15 07:52:32;;;;;;;5.93;1.77;;;22.30;99.90;;;;;;5115512;28;20035;-74
2023/07/15 07:54:58;;;;;;;3.05;1.42;;;22.20;99.90;;;;;;5115866;28;20112;-74
2023/07/15 07:57:24;;;;;;;5.50;1.60;;;22.20;99.90;;;;;;5115155;28;20040;-72
2023/07/15 07:59:53;;;;;;;5.15;1.63;;;22.30;99.90;;;;;;5117332;28;20099;-75
2023/07/15 08:02:18;;;;;;;4.13;1.50;;;22.50;99.90;;;;;;5116041;28;20083;-78
2023/07/15 08:04:44;;;;;;;5.25;1.50;;;22.80;99.90;;;;;;5115423;28;20042;-78
2023/07/15 08:07:10;;;;;;;5.05;1.88;;;23.10;99.90;;;;;;5116857;28;20471;-77
2023/07/15 08:09:36;;;;;;;6.38;1.60;;;23.30;99.90;;;;;;5117289;27;20059;-73
2023/07/15 08:12:05;;;;;;;7.55;2.70;;;23.30;99.90;;;;;;5115512;28;20047;-74
2023/07/15 08:14:31;;;;;;;8.82;1.73;;;23.50;99.90;;;;;;5117304;28;20039;-77
2023/07/15 08:16:57;;;;;;;6.55;1.98;;;23.60;99.90;;;;;;5111875;28;20043;-74
2023/07/15 08:19:23;;;;;;;6.88;1.55;;;24.00;99.90;;;;;;5113051;28;20088;-75
2023/07/15 08:21:49;;;;;;;6.45;1.55;;;24.00;99.90;;;;;;5114300;28;20040;-74
2023/07/15 08:24:15;;;;;;;5.15;1.75;;;24.10;99.90;;;;;;5115082;28;20403;-80
2023/07/15 08:26:41;;;;;;;5.45;1.92;;;24.50;99.90;;;;;;5114365;28;20478;-78
2023/07/15 08:29:07;;;;;;;4.60;1.70;;;25.10;99.90;;;;;;5115917;28;20040;-81
2023/07/15 08:31:33;;;;;;;5.35;1.60;;;25.40;99.50;;;;;;5113481;28;20043;-78
2023/07/15 08:33:59;;;;;;;6.78;2.00;;;25.40;99.90;;;;;;5116865;28;20055;-80
2023/07/15 08:36:24;;;;;;;6.13;1.90;;;25.50;99.90;;;;;;5115659;28;20093;-73
2023/07/15 08:38:50;;;;;;;4.53;1.80;;;25.30;99.90;;;;;;5112960;28;20162;-75
2023/07/15 08:41:17;;;;;;;5.88;1.70;;;25.10;98.80;;;;;;5115420;28;20036;-73
2023/07/15 08:43:46;;;;;;;5.63;1.80;;;25.30;98.50;;;;;;5116539;28;20036;-77
2023/07/15 08:46:29;;;;;;;5.25;1.92;;;25.20;97.70;;;;;;5115252;28;20559;-73
2023/07/15 08:48:57;;;;;;;5.07;1.80;;;25.30;98.00;;;;;;5115810;28;20040;-74
2023/07/15 08:51:28;;;;;;;7.10;2.25;;;25.30;98.00;;;;;;5109897;28;20516;-73
2023/07/15 08:53:59;;;;;;;4.30;1.70;;;25.40;98.70;;;;;;5112960;28;20048;-72
2023/07/15 08:56:29;;;;;;;6.38;1.63;;;25.30;98.50;;;;;;5115075;28;20130;-73
2023/07/15 08:58:58;;;;;;;6.25;1.40;;;25.30;98.40;;;;;;5116175;28;20513;-74
2023/07/15 09:01:24;;;;;;;5.07;1.50;;;25.00;98.30;;;;;;5113829;28;20044;-75
2023/07/15 09:03:50;;;;;;;4.53;1.73;;;25.10;98.20;;;;;;5114647;28;20043;-73
2023/07/15 09:06:19;;;;;;;5.90;1.90;;;24.90;98.40;;;;;;5114150;28;20047;-74
2023/07/15 09:08:50;;;;;;;7.22;1.88;;;25.00;98.60;;;;;;5111841;28;20096;-74
2023/07/15 09:11:16;;;;;;;4.40;1.70;;;25.30;98.40;;;;;;5114195;28;20135;-73
2023/07/15 09:13:44;;;;;;;5.38;1.85;;;25.50;98.80;;;;;;5097379;28;20115;-74
2023/07/15 09:16:10;;;;;;;4.57;1.70;;;25.90;97.60;;;;;;5113178;28;20070;-74
2023/07/15 09:18:40;;;;;;;6.60;1.70;;;26.00;96.40;;;;;;5111917;28;20079;-75
2023/07/15 09:21:16;;;;;;;4.55;1.65;;;25.90;95.90;;;;;;5113287;28;20547;-76
2023/07/15 09:23:44;;;;;;;5.70;1.60;;;25.80;95.80;;;;;;5099457;28;20075;-73
2023/07/15 09:26:14;;;;;;;3.80;1.48;;;26.00;95.90;;;;;;5116262;28;20057;-73
2023/07/15 09:28:42;;;;;;;3.40;1.35;;;26.30;96.40;;;;;;5113533;28;20039;-73
2023/07/15 09:31:08;;;;;;;4.45;1.50;;;26.30;96.40;;;;;;5115091;28;20118;-74
2023/07/15 09:33:42;;;;;;;3.97;1.42;;;26.40;96.60;;;;;;5113606;28;20158;-74
2023/07/15 09:36:09;;;;;;;5.15;1.50;;;26.70;95.20;;;;;;5114313;28;20043;-74
2023/07/15 09:38:37;;;;;;;3.97;1.45;;;27.30;95.00;;;;;;5113785;28;20048;-75
2023/07/15 09:41:18;;;;;;;3.97;1.70;;;27.50;94.10;;;;;;5114134;28;20076;-74
2023/07/15 09:43:44;;;;;;;4.78;1.73;;;27.40;94.20;;;;;;5096654;28;20513;-74
2023/07/15 09:46:12;;;;;;;4.88;1.75;;;27.60;94.30;;;;;;5113292;28;20047;-72
2023/07/15 09:48:38;;;;;;;4.75;1.75;;;27.90;94.40;;;;;;5113591;28;20104;-73
2023/07/15 09:51:04;;;;;;;5.22;1.85;;;27.80;93.80;;;;;;5112356;28;20035;-74
2023/07/15 09:53:31;;;;;;;4.15;1.52;;;28.20;94.20;;;;;;5113201;28;20354;-72
2023/07/15 09:56:01;;;;;;;4.03;1.42;;;28.50;94.10;;;;;;5114208;28;20051;-73
2023/07/15 09:58:29;;;;;;;3.88;1.50;;;28.30;94.00;;;;;;5102906;28;20066;-73
2023/07/15 10:01:11;;;;;;;3.78;1.70;;;27.80;94.50;;;;;;5113699;27;20044;-73
2023/07/15 10:03:47;;;;;;;4.43;1.48;;;28.00;94.10;;;;;;5113156;28;20043;-73
2023/07/15 10:06:14;;;;;;;5.82;1.88;;;28.00;94.10;;;;;;5114163;28;20479;-71
2023/07/15 10:08:40;;;;;;;5.78;1.85;;;27.80;94.60;;;;;;5112806;28;20549;-72
2023/07/15 10:11:07;;;;;;;4.53;1.38;;;27.50;95.00;;;;;;5114027;28;20487;-71
2023/07/15 10:13:34;;;;;;;4.88;1.55;;;27.70;95.00;;;;;;5111047;28;20040;-72
2023/07/15 10:16:01;;;;;;;5.05;1.73;;;27.30;95.00;;;;;;5114483;28;20046;-71
2023/07/15 10:18:33;;;;;;;4.70;1.90;;;27.20;95.30;;;;;;5113006;28;20044;-71
2023/07/15 10:21:03;;;;;;;4.03;1.40;;;27.10;95.00;;;;;;5114212;28;20122;-72
2023/07/15 10:23:31;;;;;;;3.50;1.60;;;26.80;95.50;;;;;;5105475;28;20127;-71
2023/07/15 10:26:05;;;;;;;4.68;1.60;;;26.70;96.00;;;;;;5108509;27;20544;-73
2023/07/15 10:28:39;;;;;;;4.35;1.85;;;27.00;96.30;;;;;;5112163;28;20044;-73
2023/07/15 10:31:24;;;;;;;3.75;1.70;;;27.70;95.10;;;;;;5111853;28;20044;-73
2023/07/15 10:33:55;;;;;;;7.05;2.13;;;27.70;94.30;;;;;;5107135;28;20048;-73
2023/07/15 10:36:50;;;;;;;4.75;1.65;;;27.50;94.70;;;;;;5112503;28;20043;-73
2023/07/15 10:39:20;;;;;;;5.70;2.17;;;27.40;94.90;;;;;;5094014;28;20491;-73
2023/07/15 10:41:48;;;;;;;4.88;1.75;;;27.30;95.10;;;;;;5097575;28;20483;-73
2023/07/15 10:44:19;;;;;;;3.72;1.70;;;27.50;94.90;;;;;;5111881;28;20044;-73
2023/07/15 10:46:52;;;;;;;6.07;1.88;;;27.90;94.50;;;;;;5110697;28;20071;-73
2023/07/15 10:49:18;;;;;;;4.70;1.60;;;27.90;94.90;;;;;;5111160;28;20567;-73
2023/07/15 10:51:44;;;;;;;4.82;1.90;;;27.90;94.30;;;;;;5111019;28;20521;-73
2023/07/15 10:54:10;;;;;;;3.15;1.75;;;28.00;94.30;;;;;;5110484;28;20100;-73
2023/07/15 10:56:36;;;;;;;3.35;1.52;;;28.20;94.60;;;;;;5110908;28;20052;-73
2023/07/15 10:59:05;;;;;;;4.90;1.83;;;28.50;94.20;;;;;;5111405;28;20040;-73
2023/07/15 11:01:30;;;;;;;4.95;2.00;;;28.50;94.00;;;;;;5110183;28;20040;-73
2023/07/15 11:04:05;;;;;;;4.05;1.58;;;28.50;93.90;;;;;;5111787;28;20071;-73
2023/07/15 11:06:33;;;;;;;4.80;1.73;;;28.40;93.80;;;;;;5111101;28;20127;-73
2023/07/15 11:08:58;;;;;;;5.13;1.98;;;28.20;94.60;;;;;;5112484;28;20352;-75
2023/07/15 11:11:24;;;;;;;3.83;1.80;;;28.10;94.60;;;;;;5113326;28;20032;-73
2023/07/15 11:13:51;;;;;;;5.43;2.05;;;28.10;95.30;;;;;;5111704;28;20071;-73
2023/07/15 11:16:17;;;;;;;5.25;1.70;;;28.20;94.70;;;;;;5111385;28;20051;-72
2023/07/15 11:18:42;;;;;;;4.18;1.80;;;27.90;94.00;;;;;;5111006;28;20039;-72
2023/07/15 11:21:10;;;;;;;4.28;1.60;;;27.90;94.90;;;;;;5110292;28;20047;-73
2023/07/15 11:23:36;;;;;;;5.03;1.35;;;28.00;95.10;;;;;;5111390;28;20047;-72
2023/07/15 11:26:09;;;;;;;4.25;1.50;;;28.00;94.80;;;;;;5112438;28;20149;-77
2023/07/15 11:28:45;;;;;;;4.85;1.40;;;28.10;94.90;;;;;;5109704;28;20044;-74
2023/07/15 11:31:11;;;;;;;3.33;1.48;;;28.20;94.80;;;;;;5109217;28;20050;-74
2023/07/15 11:33:39;;;;;;;2.53;1.30;;;28.00;94.50;;;;;;5110397;28;20054;-71
2023/07/15 11:36:07;;;;;;;3.08;1.30;;;28.10;95.50;;;;;;5109383;28;20404;-71
2023/07/15 11:38:34;;;;;;;4.10;1.42;;;28.40;95.20;;;;;;5109866;28;20388;-71
2023/07/15 11:41:00;;;;;;;4.63;1.90;;;28.50;94.30;;;;;;5110214;28;20092;-71
2023/07/15 11:43:27;;;;;;;3.45;1.30;;;28.60;94.20;;;;;;5110886;28;20437;-72
2023/07/15 11:46:01;;;;;;;3.42;1.50;;;28.50;94.00;;;;;;5112198;28;20098;-73
2023/07/15 11:48:28;;;;;;;2.70;1.40;;;28.30;94.40;;;;;;5109096;28;20458;-73
2023/07/15 11:51:07;;;;;;;3.75;1.58;;;28.50;93.90;;;;;;5111367;28;20040;-74
2023/07/15 11:53:37;;;;;;;4.40;1.40;;;28.30;94.50;;;;;;5109755;28;20051;-74
2023/07/15 11:56:05;;;;;;;4.32;1.38;;;28.20;94.20;;;;;;5110720;28;20050;-74
2023/07/15 11:58:41;;;;;;;3.53;1.40;;;28.00;94.80;;;;;;5110776;28;20069;-76
2023/07/15 12:01:17;;;;;;;7.47;1.67;;;27.90;95.00;;;;;;5111445;28;20471;-77
2023/07/15 12:03:45;;;;;;;6.00;1.85;;;27.90;95.20;;;;;;5103559;28;20371;-75
2023/07/15 12:06:17;;;;;;;4.45;1.48;;;27.60;95.20;;;;;;5111141;28;20071;-78
2023/07/15 12:09:04;;;;;;;3.83;1.80;;;27.40;95.50;;;;;;5108628;28;20035;-78
2023/07/15 12:11:32;;;;;;;3.97;1.88;;;27.40;95.50;;;;;;5106989;28;20127;-75
2023/07/15 12:14:01;;;;;;;3.90;1.60;;;27.40;95.50;;;;;;5112657;28;20130;-77
2023/07/15 12:16:30;;;;;;;4.20;1.80;;;27.30;95.70;;;;;;5112651;28;20081;-79
2023/07/15 12:18:57;;;;;;;4.82;1.90;;;27.50;95.20;;;;;;5112393;28;20036;-80
2023/07/15 12:21:23;;;;;;;3.80;1.58;;;27.50;95.70;;;;;;5111284;28;20035;-77
2023/07/15 12:23:52;;;;;;;4.10;1.80;;;27.50;95.80;;;;;;5111641;28;20077;-78
2023/07/15 12:26:18;;;;;;;5.28;1.80;;;27.50;96.00;;;;;;5112632;28;20035;-74
2023/07/15 12:28:45;;;;;;;5.05;1.70;;;27.40;95.60;;;;;;5110068;28;20047;-73
2023/07/15 12:31:11;;;;;;;3.72;1.70;;;27.30;94.80;;;;;;5111540;28;20115;-73
2023/07/15 12:33:40;;;;;;;4.25;2.00;;;26.90;95.50;;;;;;5110434;28;20054;-73
2023/07/15 12:36:07;;;;;;;5.00;2.05;;;26.60;95.60;;;;;;5112438;28;20450;-73
2023/07/15 12:38:33;;;;;;;3.78;1.58;;;26.50;96.00;;;;;;5113439;28;20083;-73
2023/07/15 12:41:01;;;;;;;4.40;1.65;;;26.70;96.30;;;;;;5113326;28;20235;-72
2023/07/15 12:43:27;;;;;;;4.22;1.58;;;26.90;96.00;;;;;;5114565;28;20482;-73
2023/07/15 12:45:53;;;;;;;4.18;1.38;;;27.10;95.70;;;;;;5114054;28;20050;-73
2023/07/15 12:48:18;;;;;;;5.18;1.70;;;27.30;95.70;;;;;;5114606;28;20050;-73